logo
Rechercher aéroport 
image banner adimage banner adimage banner ad
image banner ad

CL15 - Sce Ridgecrest Service Center

Situé à Ridgecrest, United States

ICAO - CL15, IATA -

Données fournies par Airmate  

Information générale

Coordonnées: N35°36'53" W117°40'6"
Élévation : 2288 feet MSL.
Variation magnétique : 14° East
Voir autres Aéroports à California

Données opérationnelles

Special qualification required
Heure actuelle UTC:
Heure actuelle locale:
METAR: KNID 261456Z 00000KT 10SM FEW140 24/08 A3003 RMK AO2 SLP148 T02440083 53014 $
TAF: TAF KNID 2615/2715 VRB05KT 9999 FEW140 QNH2995INS BECMG 2619/2621 13008KT 9999 FEW140 QNH2991INS BECMG 2623/2701 20008G15KT 9999 SKC QNH2987INS WND 170V240 BECMG 2702/2704 25007KT 9999 SKC QNH2990INS T39/2623Z T17/2713Z
Voir NOTAMs / SUP AIP / TFR affectant cet aéroport [VIEW]
Fréquences de communication: [VIEW]

Pistes:

Coordonnées de l'aéroport

Adresse: Ridgecrest United States

Vue satellite de CL15